This is the latest recevied weather packets stored in our database for station/object VK5KJP. If no packets are shown the sender has not sent any weather packets the latest 10 day(s).
| Time | Temp. | Humidity | Pressure | Rain* | Wind** | Luminosity | Snow |
|---|---|---|---|---|---|---|---|
| 1777802736 | 13.33° C | 94% | 1014.4 hPa | 0 mm | - | - | - |
| 1777802149 | 12.78° C | 94% | 1014.4 hPa | 0.76 mm | - | - | - |
| 1777800969 | 12.78° C | 94% | 1014.2 hPa | 5.59 mm | - | - | - |
| 1777799148 | 13.33° C | 93% | 1014.3 hPa | 6.1 mm | - | - | - |
| 1777797948 | 13.89° C | 91% | 1014.2 hPa | 5.08 mm | - | - | - |
| 1777796194 | 13.89° C | 91% | 1013.6 hPa | 2.79 mm | - | - | - |
| 1777794948 | 16.11° C | 82% | 1013.4 hPa | 1.27 mm | - | - | - |
| 1777792548 | 16.11° C | 75% | 1013.1 hPa | 0 mm | - | - | - |
| 1777791948 | 16.67° C | 75% | 1013.1 hPa | 0 mm | - | - | - |
| 1777791327 | 16.67° C | 73% | 1013.1 hPa | 0 mm | - | - | - |
| 1777790748 | 16.67° C | 75% | 1013.1 hPa | 0 mm | - | - | - |
| 1777789549 | 16.67° C | 79% | 1013 hPa | 0 mm | - | - | - |
| 1777786569 | 14.44° C | 88% | 1013.2 hPa | 0 mm | - | - | - |
| 1777785957 | 16.11° C | 87% | 1013.3 hPa | 0 mm | - | - | - |
| 1777784168 | 19.44° C | 52% | 1012.5 hPa | 0 mm | - | - | - |
| 1777779348 | 18.89° C | 53% | 1013 hPa | 0 mm | - | - | - |
| 1777778727 | 18.33° C | 57% | 1013 hPa | 0 mm | - | - | - |
| 1777778148 | 18.33° C | 61% | 1013.1 hPa | 0 mm | - | - | - |
| 1777774527 | 18.89° C | 56% | 1013.6 hPa | 0 mm | - | - | - |
| 1777773948 | 18.33° C | 57% | 1013.6 hPa | 0 mm | - | - | - |
| 1777770968 | 17.78° C | 63% | 1013.7 hPa | 0 mm | - | - | - |
| 1777769137 | 17.22° C | 66% | 1013.9 hPa | 0 mm | - | - | - |
| 1777768589 | 17.22° C | 66% | 1013.9 hPa | 0 mm | - | - | - |
| 1777766127 | 16.11° C | 69% | 1013.9 hPa | 0 mm | - | - | - |
| 1777765548 | 16.11° C | 70% | 1013.8 hPa | 0 mm | - | - | - |
* Rain latest hour (hover to see other rain measurements)
** Current wind speed in m/s (hover to see current wind gust speed)